sensor_id;sensor_type;location;lat;lon;timestamp;P1;durP1;ratioP1;P2;durP2;ratioP2
69369;SDS011;56530;42.640;23.372;2023-05-03T00:00:27;4.18;;;2.20;;
69369;SDS011;56530;42.640;23.372;2023-05-03T00:02:53;4.53;;;2.10;;
69369;SDS011;56530;42.640;23.372;2023-05-03T00:05:21;4.80;;;1.95;;
69369;SDS011;56530;42.640;23.372;2023-05-03T00:07:46;5.10;;;2.10;;
69369;SDS011;56530;42.640;23.372;2023-05-03T00:10:12;4.73;;;2.20;;
69369;SDS011;56530;42.640;23.372;2023-05-03T00:12:39;3.67;;;2.30;;
69369;SDS011;56530;42.640;23.372;2023-05-03T00:15:06;2.75;;;1.92;;
69369;SDS011;56530;42.640;23.372;2023-05-03T00:17:31;4.97;;;2.15;;
69369;SDS011;56530;42.640;23.372;2023-05-03T00:19:57;4.23;;;2.07;;
69369;SDS011;56530;42.640;23.372;2023-05-03T00:22:23;3.40;;;2.17;;
69369;SDS011;56530;42.640;23.372;2023-05-03T00:24:49;3.72;;;1.98;;
69369;SDS011;56530;42.640;23.372;2023-05-03T00:27:15;5.05;;;2.22;;
69369;SDS011;56530;42.640;23.372;2023-05-03T00:29:41;3.03;;;2.05;;
69369;SDS011;56530;42.640;23.372;2023-05-03T00:32:06;3.00;;;2.40;;
69369;SDS011;56530;42.640;23.372;2023-05-03T00:34:34;3.25;;;2.55;;
69369;SDS011;56530;42.640;23.372;2023-05-03T00:37:00;4.77;;;2.23;;
69369;SDS011;56530;42.640;23.372;2023-05-03T00:39:27;4.77;;;2.40;;
69369;SDS011;56530;42.640;23.372;2023-05-03T00:41:57;4.20;;;2.40;;
69369;SDS011;56530;42.640;23.372;2023-05-03T00:44:23;5.03;;;3.00;;
69369;SDS011;56530;42.640;23.372;2023-05-03T00:46:48;3.70;;;2.20;;
69369;SDS011;56530;42.640;23.372;2023-05-03T00:49:14;3.97;;;2.10;;
69369;SDS011;56530;42.640;23.372;2023-05-03T00:51:40;5.57;;;2.33;;
69369;SDS011;56530;42.640;23.372;2023-05-03T00:54:06;4.18;;;2.15;;
69369;SDS011;56530;42.640;23.372;2023-05-03T00:56:31;3.42;;;2.30;;
69369;SDS011;56530;42.640;23.372;2023-05-03T00:58:57;4.30;;;2.10;;
69369;SDS011;56530;42.640;23.372;2023-05-03T01:01:22;2.63;;;2.10;;
69369;SDS011;56530;42.640;23.372;2023-05-03T01:03:48;3.40;;;2.20;;
69369;SDS011;56530;42.640;23.372;2023-05-03T01:09:17;6.70;;;2.27;;
69369;SDS011;56530;42.640;23.372;2023-05-03T02:50:01;4.15;;;2.40;;
69369;SDS011;56530;42.640;23.372;2023-05-03T02:52:26;4.13;;;2.57;;
69369;SDS011;56530;42.640;23.372;2023-05-03T02:54:52;3.88;;;2.80;;
69369;SDS011;56530;42.640;23.372;2023-05-03T02:57:18;4.35;;;2.38;;
69369;SDS011;56530;42.640;23.372;2023-05-03T02:59:44;2.83;;;2.33;;
69369;SDS011;56530;42.640;23.372;2023-05-03T03:02:09;3.23;;;2.23;;
69369;SDS011;56530;42.640;23.372;2023-05-03T03:04:34;4.10;;;2.10;;
69369;SDS011;56530;42.640;23.372;2023-05-03T03:07:00;4.20;;;2.67;;
69369;SDS011;56530;42.640;23.372;2023-05-03T03:09:25;5.93;;;3.00;;
69369;SDS011;56530;42.640;23.372;2023-05-03T03:11:51;4.50;;;2.67;;
69369;SDS011;56530;42.640;23.372;2023-05-03T03:14:16;3.40;;;2.35;;
69369;SDS011;56530;42.640;23.372;2023-05-03T03:16:43;5.60;;;2.90;;
69369;SDS011;56530;42.640;23.372;2023-05-03T03:19:09;4.05;;;2.50;;
69369;SDS011;56530;42.640;23.372;2023-05-03T03:21:35;3.40;;;2.40;;
69369;SDS011;56530;42.640;23.372;2023-05-03T03:24:01;5.03;;;2.60;;
69369;SDS011;56530;42.640;23.372;2023-05-03T03:26:27;3.20;;;2.50;;
69369;SDS011;56530;42.640;23.372;2023-05-03T03:28:53;2.53;;;2.20;;
69369;SDS011;56530;42.640;23.372;2023-05-03T03:31:18;3.80;;;3.03;;
69369;SDS011;56530;42.640;23.372;2023-05-03T03:33:46;2.97;;;2.67;;
69369;SDS011;56530;42.640;23.372;2023-05-03T03:36:12;6.85;;;2.70;;
69369;SDS011;56530;42.640;23.372;2023-05-03T03:38:37;6.00;;;2.80;;
69369;SDS011;56530;42.640;23.372;2023-05-03T03:41:05;5.82;;;2.80;;
69369;SDS011;56530;42.640;23.372;2023-05-03T03:43:30;3.65;;;2.60;;
69369;SDS011;56530;42.640;23.372;2023-05-03T03:45:55;4.00;;;2.50;;
69369;SDS011;56530;42.640;23.372;2023-05-03T03:48:21;5.00;;;2.60;;
69369;SDS011;56530;42.640;23.372;2023-05-03T03:50:46;7.03;;;3.10;;
69369;SDS011;56530;42.640;23.372;2023-05-03T03:53:12;5.55;;;2.72;;
69369;SDS011;56530;42.640;23.372;2023-05-03T03:55:37;4.43;;;2.83;;
69369;SDS011;56530;42.640;23.372;2023-05-03T03:58:02;5.93;;;2.80;;
69369;SDS011;56530;42.640;23.372;2023-05-03T04:00:29;6.57;;;3.03;;
69369;SDS011;56530;42.640;23.372;2023-05-03T04:02:54;5.50;;;2.73;;
69369;SDS011;56530;42.640;23.372;2023-05-03T04:05:19;3.03;;;2.50;;
69369;SDS011;56530;42.640;23.372;2023-05-03T04:07:45;5.60;;;2.73;;
69369;SDS011;56530;42.640;23.372;2023-05-03T04:10:10;5.23;;;2.70;;
69369;SDS011;56530;42.640;23.372;2023-05-03T04:12:35;6.00;;;2.30;;
69369;SDS011;56530;42.640;23.372;2023-05-03T04:15:02;4.00;;;2.70;;
69369;SDS011;56530;42.640;23.372;2023-05-03T04:17:28;7.25;;;3.20;;
69369;SDS011;56530;42.640;23.372;2023-05-03T04:19:53;7.93;;;2.90;;
69369;SDS011;56530;42.640;23.372;2023-05-03T04:22:19;5.72;;;2.97;;
69369;SDS011;56530;42.640;23.372;2023-05-03T04:24:45;3.27;;;2.80;;
69369;SDS011;56530;42.640;23.372;2023-05-03T04:27:11;5.35;;;2.88;;
69369;SDS011;56530;42.640;23.372;2023-05-03T04:29:38;3.28;;;2.55;;
69369;SDS011;56530;42.640;23.372;2023-05-03T04:32:04;3.90;;;2.73;;
69369;SDS011;56530;42.640;23.372;2023-05-03T04:34:30;4.65;;;2.88;;
69369;SDS011;56530;42.640;23.372;2023-05-03T04:36:56;4.78;;;2.70;;
69369;SDS011;56530;42.640;23.372;2023-05-03T04:39:22;5.70;;;3.03;;
69369;SDS011;56530;42.640;23.372;2023-05-03T04:41:48;6.60;;;3.30;;
69369;SDS011;56530;42.640;23.372;2023-05-03T04:44:13;4.72;;;2.60;;
69369;SDS011;56530;42.640;23.372;2023-05-03T04:46:38;3.83;;;3.07;;
69369;SDS011;56530;42.640;23.372;2023-05-03T04:49:04;4.70;;;2.70;;
69369;SDS011;56530;42.640;23.372;2023-05-03T04:51:30;4.30;;;2.92;;
69369;SDS011;56530;42.640;23.372;2023-05-03T04:53:57;5.22;;;3.13;;
69369;SDS011;56530;42.640;23.372;2023-05-03T04:56:22;5.13;;;2.93;;
69369;SDS011;56530;42.640;23.372;2023-05-03T04:58:53;5.97;;;3.13;;
69369;SDS011;56530;42.640;23.372;2023-05-03T05:01:18;4.63;;;3.08;;
69369;SDS011;56530;42.640;23.372;2023-05-03T05:03:50;4.20;;;3.63;;
69369;SDS011;56530;42.640;23.372;2023-05-03T05:06:15;3.72;;;3.28;;
69369;SDS011;56530;42.640;23.372;2023-05-03T05:08:41;6.73;;;2.93;;
69369;SDS011;56530;42.640;23.372;2023-05-03T05:11:06;4.27;;;3.03;;
69369;SDS011;56530;42.640;23.372;2023-05-03T05:13:32;6.20;;;3.35;;
69369;SDS011;56530;42.640;23.372;2023-05-03T05:15:57;6.55;;;3.00;;
69369;SDS011;56530;42.640;23.372;2023-05-03T05:18:23;4.27;;;3.00;;
69369;SDS011;56530;42.640;23.372;2023-05-03T05:20:48;5.00;;;3.40;;
69369;SDS011;56530;42.640;23.372;2023-05-03T05:23:14;3.70;;;2.90;;
69369;SDS011;56530;42.640;23.372;2023-05-03T05:25:39;4.93;;;2.90;;
69369;SDS011;56530;42.640;23.372;2023-05-03T05:28:04;3.87;;;3.17;;
69369;SDS011;56530;42.640;23.372;2023-05-03T05:30:30;7.90;;;3.47;;
69369;SDS011;56530;42.640;23.372;2023-05-03T05:32:55;7.40;;;3.92;;
69369;SDS011;56530;42.640;23.372;2023-05-03T05:35:21;7.27;;;3.40;;
69369;SDS011;56530;42.640;23.372;2023-05-03T05:37:46;5.13;;;3.30;;
69369;SDS011;56530;42.640;23.372;2023-05-03T05:40:11;3.85;;;3.42;;
69369;SDS011;56530;42.640;23.372;2023-05-03T05:42:37;4.00;;;3.10;;
69369;SDS011;56530;42.640;23.372;2023-05-03T05:45:03;4.97;;;3.60;;
69369;SDS011;56530;42.640;23.372;2023-05-03T05:47:28;8.48;;;3.70;;
69369;SDS011;56530;42.640;23.372;2023-05-03T05:49:54;6.83;;;3.17;;
69369;SDS011;56530;42.640;23.372;2023-05-03T05:52:19;6.47;;;3.17;;
69369;SDS011;56530;42.640;23.372;2023-05-03T05:54:46;10.27;;;3.60;;
69369;SDS011;56530;42.640;23.372;2023-05-03T05:57:11;5.93;;;3.73;;
69369;SDS011;56530;42.640;23.372;2023-05-03T05:59:37;6.17;;;4.10;;
69369;SDS011;56530;42.640;23.372;2023-05-03T06:02:03;5.47;;;3.33;;
69369;SDS011;56530;42.640;23.372;2023-05-03T06:04:28;4.77;;;3.40;;
69369;SDS011;56530;42.640;23.372;2023-05-03T06:06:54;4.80;;;3.05;;
69369;SDS011;56530;42.640;23.372;2023-05-03T06:09:19;5.00;;;3.00;;
69369;SDS011;56530;42.640;23.372;2023-05-03T06:11:44;5.03;;;3.30;;
69369;SDS011;56530;42.640;23.372;2023-05-03T06:14:10;6.83;;;3.63;;
69369;SDS011;56530;42.640;23.372;2023-05-03T06:16:36;3.67;;;3.08;;
69369;SDS011;56530;42.640;23.372;2023-05-03T06:19:02;6.50;;;3.40;;
69369;SDS011;56530;42.640;23.372;2023-05-03T06:21:29;4.65;;;3.45;;
69369;SDS011;56530;42.640;23.372;2023-05-03T06:23:55;4.97;;;3.10;;
69369;SDS011;56530;42.640;23.372;2023-05-03T06:26:20;4.73;;;3.23;;
69369;SDS011;56530;42.640;23.372;2023-05-03T06:28:47;5.85;;;3.30;;
69369;SDS011;56530;42.640;23.372;2023-05-03T06:31:14;7.20;;;3.40;;
69369;SDS011;56530;42.640;23.372;2023-05-03T06:33:40;5.67;;;3.40;;
69369;SDS011;56530;42.640;23.372;2023-05-03T06:36:05;5.27;;;3.73;;
69369;SDS011;56530;42.640;23.372;2023-05-03T06:38:32;7.75;;;3.17;;
69369;SDS011;56530;42.640;23.372;2023-05-03T06:40:58;3.70;;;3.38;;
69369;SDS011;56530;42.640;23.372;2023-05-03T06:43:23;9.17;;;3.40;;
69369;SDS011;56530;42.640;23.372;2023-05-03T06:45:50;5.70;;;3.95;;
69369;SDS011;56530;42.640;23.372;2023-05-03T06:48:16;7.15;;;3.33;;
69369;SDS011;56530;42.640;23.372;2023-05-03T06:50:41;4.27;;;3.40;;
69369;SDS011;56530;42.640;23.372;2023-05-03T06:53:07;5.23;;;3.07;;
69369;SDS011;56530;42.640;23.372;2023-05-03T06:55:32;4.88;;;3.35;;
69369;SDS011;56530;42.640;23.372;2023-05-03T06:57:58;7.37;;;3.67;;
69369;SDS011;56530;42.640;23.372;2023-05-03T07:00:23;4.22;;;3.03;;
69369;SDS011;56530;42.640;23.372;2023-05-03T07:02:50;4.53;;;3.50;;
69369;SDS011;56530;42.640;23.372;2023-05-03T07:05:15;4.73;;;3.33;;
69369;SDS011;56530;42.640;23.372;2023-05-03T07:07:41;5.57;;;3.10;;
69369;SDS011;56530;42.640;23.372;2023-05-03T07:10:06;6.28;;;3.00;;
69369;SDS011;56530;42.640;23.372;2023-05-03T07:12:32;4.87;;;3.10;;
69369;SDS011;56530;42.640;23.372;2023-05-03T07:14:57;3.70;;;3.10;;
69369;SDS011;56530;42.640;23.372;2023-05-03T07:17:23;6.00;;;3.20;;
69369;SDS011;56530;42.640;23.372;2023-05-03T07:19:49;5.20;;;3.53;;
69369;SDS011;56530;42.640;23.372;2023-05-03T07:22:15;5.60;;;3.28;;
69369;SDS011;56530;42.640;23.372;2023-05-03T07:24:41;8.03;;;3.20;;
69369;SDS011;56530;42.640;23.372;2023-05-03T07:27:06;9.40;;;3.47;;
69369;SDS011;56530;42.640;23.372;2023-05-03T07:29:32;4.60;;;3.33;;
69369;SDS011;56530;42.640;23.372;2023-05-03T07:31:57;3.77;;;3.10;;
69369;SDS011;56530;42.640;23.372;2023-05-03T07:34:23;4.43;;;3.47;;
69369;SDS011;56530;42.640;23.372;2023-05-03T07:36:49;6.03;;;3.30;;
69369;SDS011;56530;42.640;23.372;2023-05-03T07:39:14;5.67;;;3.37;;
69369;SDS011;56530;42.640;23.372;2023-05-03T07:41:39;5.38;;;3.22;;
69369;SDS011;56530;42.640;23.372;2023-05-03T07:44:05;7.70;;;3.43;;
69369;SDS011;56530;42.640;23.372;2023-05-03T07:46:31;4.70;;;3.55;;
69369;SDS011;56530;42.640;23.372;2023-05-03T07:48:59;5.72;;;3.53;;
69369;SDS011;56530;42.640;23.372;2023-05-03T07:51:25;5.25;;;3.25;;
69369;SDS011;56530;42.640;23.372;2023-05-03T07:53:50;4.17;;;3.20;;
69369;SDS011;56530;42.640;23.372;2023-05-03T07:56:16;6.20;;;3.77;;
69369;SDS011;56530;42.640;23.372;2023-05-03T07:58:41;6.72;;;3.95;;
69369;SDS011;56530;42.640;23.372;2023-05-03T08:01:07;8.07;;;4.00;;
69369;SDS011;56530;42.640;23.372;2023-05-03T08:03:32;7.00;;;3.53;;
69369;SDS011;56530;42.640;23.372;2023-05-03T08:05:57;6.83;;;3.33;;
69369;SDS011;56530;42.640;23.372;2023-05-03T08:08:23;3.92;;;3.40;;
69369;SDS011;56530;42.640;23.372;2023-05-03T08:10:50;4.70;;;3.60;;
69369;SDS011;56530;42.640;23.372;2023-05-03T08:13:16;4.95;;;4.32;;
69369;SDS011;56530;42.640;23.372;2023-05-03T08:15:42;6.50;;;5.00;;
69369;SDS011;56530;42.640;23.372;2023-05-03T08:18:09;5.88;;;3.85;;
69369;SDS011;56530;42.640;23.372;2023-05-03T08:20:35;6.53;;;4.00;;
69369;SDS011;56530;42.640;23.372;2023-05-03T08:23:01;7.05;;;4.38;;
69369;SDS011;56530;42.640;23.372;2023-05-03T08:25:26;5.23;;;3.90;;
69369;SDS011;56530;42.640;23.372;2023-05-03T08:27:52;8.82;;;5.90;;
69369;SDS011;56530;42.640;23.372;2023-05-03T08:30:19;7.60;;;4.00;;
69369;SDS011;56530;42.640;23.372;2023-05-03T08:32:46;4.75;;;4.00;;
69369;SDS011;56530;42.640;23.372;2023-05-03T08:35:11;6.32;;;3.75;;
69369;SDS011;56530;42.640;23.372;2023-05-03T08:37:39;4.60;;;3.97;;
69369;SDS011;56530;42.640;23.372;2023-05-03T08:40:06;5.78;;;3.60;;
69369;SDS011;56530;42.640;23.372;2023-05-03T08:42:32;7.57;;;3.33;;
69369;SDS011;56530;42.640;23.372;2023-05-03T08:44:57;6.10;;;3.77;;
69369;SDS011;56530;42.640;23.372;2023-05-03T08:47:23;9.07;;;3.78;;
69369;SDS011;56530;42.640;23.372;2023-05-03T08:49:48;6.53;;;3.47;;
69369;SDS011;56530;42.640;23.372;2023-05-03T08:52:16;5.22;;;3.97;;
69369;SDS011;56530;42.640;23.372;2023-05-03T08:54:44;3.85;;;3.10;;
69369;SDS011;56530;42.640;23.372;2023-05-03T08:57:10;4.88;;;3.42;;
69369;SDS011;56530;42.640;23.372;2023-05-03T08:59:45;6.25;;;3.80;;
69369;SDS011;56530;42.640;23.372;2023-05-03T09:02:14;4.85;;;3.75;;
69369;SDS011;56530;42.640;23.372;2023-05-03T09:04:40;6.22;;;4.40;;
69369;SDS011;56530;42.640;23.372;2023-05-03T09:07:06;6.97;;;4.10;;
69369;SDS011;56530;42.640;23.372;2023-05-03T09:09:32;4.10;;;3.67;;
69369;SDS011;56530;42.640;23.372;2023-05-03T09:11:58;6.82;;;3.83;;
69369;SDS011;56530;42.640;23.372;2023-05-03T09:14:23;5.73;;;3.90;;
69369;SDS011;56530;42.640;23.372;2023-05-03T09:16:48;7.00;;;4.20;;
69369;SDS011;56530;42.640;23.372;2023-05-03T09:19:14;5.87;;;3.00;;
69369;SDS011;56530;42.640;23.372;2023-05-03T09:21:41;4.38;;;3.60;;
69369;SDS011;56530;42.640;23.372;2023-05-03T09:24:17;4.10;;;3.28;;
69369;SDS011;56530;42.640;23.372;2023-05-03T09:26:43;6.13;;;3.70;;
69369;SDS011;56530;42.640;23.372;2023-05-03T09:29:25;8.07;;;4.60;;
69369;SDS011;56530;42.640;23.372;2023-05-03T09:32:04;7.53;;;3.85;;
69369;SDS011;56530;42.640;23.372;2023-05-03T09:34:30;4.95;;;4.40;;
69369;SDS011;56530;42.640;23.372;2023-05-03T09:36:56;4.43;;;3.22;;
69369;SDS011;56530;42.640;23.372;2023-05-03T09:39:22;5.03;;;3.63;;
69369;SDS011;56530;42.640;23.372;2023-05-03T09:41:47;4.17;;;3.40;;
69369;SDS011;56530;42.640;23.372;2023-05-03T09:44:13;5.60;;;3.92;;
69369;SDS011;56530;42.640;23.372;2023-05-03T09:46:38;4.93;;;3.57;;
69369;SDS011;56530;42.640;23.372;2023-05-03T09:49:04;3.77;;;3.47;;
69369;SDS011;56530;42.640;23.372;2023-05-03T09:51:30;6.00;;;3.45;;
69369;SDS011;56530;42.640;23.372;2023-05-03T09:53:58;3.70;;;3.10;;
69369;SDS011;56530;42.640;23.372;2023-05-03T09:56:23;3.83;;;3.50;;
69369;SDS011;56530;42.640;23.372;2023-05-03T09:58:51;6.47;;;3.45;;
69369;SDS011;56530;42.640;23.372;2023-05-03T10:01:17;4.25;;;3.85;;
69369;SDS011;56530;42.640;23.372;2023-05-03T10:03:43;4.28;;;3.65;;
69369;SDS011;56530;42.640;23.372;2023-05-03T10:06:18;7.45;;;5.35;;
69369;SDS011;56530;42.640;23.372;2023-05-03T10:08:51;5.43;;;3.70;;
69369;SDS011;56530;42.640;23.372;2023-05-03T10:11:18;7.40;;;4.57;;
69369;SDS011;56530;42.640;23.372;2023-05-03T10:13:44;6.03;;;3.40;;
69369;SDS011;56530;42.640;23.372;2023-05-03T10:16:12;5.10;;;4.30;;
69369;SDS011;56530;42.640;23.372;2023-05-03T10:18:47;5.80;;;3.75;;
69369;SDS011;56530;42.640;23.372;2023-05-03T10:21:19;6.15;;;3.80;;
69369;SDS011;56530;42.640;23.372;2023-05-03T10:24:09;4.45;;;3.42;;
69369;SDS011;56530;42.640;23.372;2023-05-03T10:26:41;3.90;;;3.37;;
69369;SDS011;56530;42.640;23.372;2023-05-03T10:34:56;6.40;;;4.70;;
69369;SDS011;56530;42.640;23.372;2023-05-03T10:37:25;4.32;;;3.33;;
69369;SDS011;56530;42.640;23.372;2023-05-03T10:39:52;4.90;;;3.60;;
69369;SDS011;56530;42.640;23.372;2023-05-03T10:42:19;5.53;;;3.05;;
69369;SDS011;56530;42.640;23.372;2023-05-03T10:44:53;6.97;;;3.58;;
69369;SDS011;56530;42.640;23.372;2023-05-03T10:47:20;5.63;;;3.08;;
69369;SDS011;56530;42.640;23.372;2023-05-03T10:55:09;4.73;;;3.33;;
69369;SDS011;56530;42.640;23.372;2023-05-03T10:57:41;4.50;;;3.55;;
69369;SDS011;56530;42.640;23.372;2023-05-03T11:00:12;2.95;;;2.70;;
69369;SDS011;56530;42.640;23.372;2023-05-03T11:03:01;5.97;;;2.90;;
69369;SDS011;56530;42.640;23.372;2023-05-03T11:05:41;5.63;;;3.00;;
69369;SDS011;56530;42.640;23.372;2023-05-03T11:08:17;6.47;;;2.97;;
69369;SDS011;56530;42.640;23.372;2023-05-03T11:10:44;6.65;;;3.20;;
69369;SDS011;56530;42.640;23.372;2023-05-03T11:13:10;4.25;;;3.20;;
69369;SDS011;56530;42.640;23.372;2023-05-03T11:15:36;6.70;;;3.13;;
69369;SDS011;56530;42.640;23.372;2023-05-03T11:18:03;4.22;;;3.38;;
69369;SDS011;56530;42.640;23.372;2023-05-03T11:20:30;4.67;;;3.27;;
69369;SDS011;56530;42.640;23.372;2023-05-03T11:22:56;4.27;;;3.47;;
69369;SDS011;56530;42.640;23.372;2023-05-03T11:25:21;5.85;;;3.20;;
69369;SDS011;56530;42.640;23.372;2023-05-03T11:27:47;3.70;;;3.10;;
69369;SDS011;56530;42.640;23.372;2023-05-03T11:30:12;4.50;;;3.57;;
69369;SDS011;56530;42.640;23.372;2023-05-03T11:32:38;11.82;;;5.80;;
69369;SDS011;56530;42.640;23.372;2023-05-03T11:35:05;4.93;;;3.15;;
69369;SDS011;56530;42.640;23.372;2023-05-03T11:37:31;5.50;;;3.20;;
69369;SDS011;56530;42.640;23.372;2023-05-03T11:39:57;6.10;;;3.30;;
69369;SDS011;56530;42.640;23.372;2023-05-03T11:42:23;6.30;;;3.45;;
69369;SDS011;56530;42.640;23.372;2023-05-03T11:44:51;6.63;;;3.10;;
69369;SDS011;56530;42.640;23.372;2023-05-03T11:47:16;3.80;;;3.50;;
69369;SDS011;56530;42.640;23.372;2023-05-03T11:49:51;6.60;;;4.45;;
69369;SDS011;56530;42.640;23.372;2023-05-03T11:52:24;4.18;;;3.30;;
69369;SDS011;56530;42.640;23.372;2023-05-03T11:54:51;7.57;;;3.40;;
69369;SDS011;56530;42.640;23.372;2023-05-03T11:57:17;9.35;;;3.85;;
69369;SDS011;56530;42.640;23.372;2023-05-03T11:59:43;6.22;;;4.00;;
69369;SDS011;56530;42.640;23.372;2023-05-03T12:02:10;5.95;;;3.05;;
69369;SDS011;56530;42.640;23.372;2023-05-03T12:04:36;5.50;;;3.80;;
69369;SDS011;56530;42.640;23.372;2023-05-03T12:07:06;7.70;;;3.23;;
69369;SDS011;56530;42.640;23.372;2023-05-03T12:09:32;3.90;;;3.10;;
69369;SDS011;56530;42.640;23.372;2023-05-03T12:11:58;7.03;;;4.20;;
69369;SDS011;56530;42.640;23.372;2023-05-03T12:14:24;6.43;;;3.40;;
69369;SDS011;56530;42.640;23.372;2023-05-03T12:16:50;6.10;;;3.88;;
69369;SDS011;56530;42.640;23.372;2023-05-03T12:19:24;4.93;;;3.65;;
69369;SDS011;56530;42.640;23.372;2023-05-03T12:21:50;3.80;;;3.40;;
69369;SDS011;56530;42.640;23.372;2023-05-03T12:24:16;6.00;;;4.50;;
69369;SDS011;56530;42.640;23.372;2023-05-03T12:26:43;7.95;;;4.80;;
69369;SDS011;56530;42.640;23.372;2023-05-03T12:29:09;6.55;;;3.55;;
69369;SDS011;56530;42.640;23.372;2023-05-03T12:31:35;7.05;;;3.58;;
69369;SDS011;56530;42.640;23.372;2023-05-03T12:34:01;5.27;;;3.80;;
69369;SDS011;56530;42.640;23.372;2023-05-03T12:36:28;4.93;;;3.92;;
69369;SDS011;56530;42.640;23.372;2023-05-03T12:38:56;4.15;;;3.75;;
69369;SDS011;56530;42.640;23.372;2023-05-03T12:41:21;4.30;;;3.53;;
69369;SDS011;56530;42.640;23.372;2023-05-03T12:43:49;5.35;;;3.97;;
69369;SDS011;56530;42.640;23.372;2023-05-03T12:46:14;4.15;;;3.70;;
69369;SDS011;56530;42.640;23.372;2023-05-03T12:48:40;5.37;;;3.77;;
69369;SDS011;56530;42.640;23.372;2023-05-03T12:51:05;6.67;;;3.80;;
69369;SDS011;56530;42.640;23.372;2023-05-03T12:53:31;4.27;;;3.33;;
69369;SDS011;56530;42.640;23.372;2023-05-03T12:55:56;4.38;;;3.97;;
69369;SDS011;56530;42.640;23.372;2023-05-03T12:58:21;4.20;;;3.85;;
69369;SDS011;56530;42.640;23.372;2023-05-03T13:00:47;6.63;;;3.53;;
69369;SDS011;56530;42.640;23.372;2023-05-03T13:03:13;4.83;;;3.70;;
69369;SDS011;56530;42.640;23.372;2023-05-03T13:05:38;8.60;;;4.30;;
69369;SDS011;56530;42.640;23.372;2023-05-03T13:08:04;4.43;;;4.10;;
69369;SDS011;56530;42.640;23.372;2023-05-03T13:10:30;6.20;;;4.30;;
69369;SDS011;56530;42.640;23.372;2023-05-03T13:12:55;4.83;;;4.33;;
69369;SDS011;56530;42.640;23.372;2023-05-03T13:15:21;5.97;;;5.00;;
69369;SDS011;56530;42.640;23.372;2023-05-03T13:17:49;5.68;;;4.05;;
69369;SDS011;56530;42.640;23.372;2023-05-03T13:20:15;4.30;;;3.90;;
69369;SDS011;56530;42.640;23.372;2023-05-03T13:22:40;6.07;;;4.10;;
69369;SDS011;56530;42.640;23.372;2023-05-03T13:25:06;5.20;;;4.30;;
69369;SDS011;56530;42.640;23.372;2023-05-03T13:27:32;5.95;;;4.90;;
69369;SDS011;56530;42.640;23.372;2023-05-03T13:29:58;5.57;;;4.70;;
69369;SDS011;56530;42.640;23.372;2023-05-03T13:32:25;9.07;;;5.65;;
69369;SDS011;56530;42.640;23.372;2023-05-03T13:34:50;5.53;;;5.03;;
69369;SDS011;56530;42.640;23.372;2023-05-03T13:37:16;6.70;;;6.07;;
69369;SDS011;56530;42.640;23.372;2023-05-03T13:39:43;7.05;;;6.35;;
69369;SDS011;56530;42.640;23.372;2023-05-03T13:42:09;6.57;;;5.97;;
69369;SDS011;56530;42.640;23.372;2023-05-03T13:44:35;6.30;;;5.68;;
69369;SDS011;56530;42.640;23.372;2023-05-03T13:47:01;7.90;;;6.20;;
69369;SDS011;56530;42.640;23.372;2023-05-03T13:49:26;7.00;;;6.00;;
69369;SDS011;56530;42.640;23.372;2023-05-03T13:51:52;5.70;;;5.10;;
69369;SDS011;56530;42.640;23.372;2023-05-03T13:54:18;6.70;;;6.10;;
69369;SDS011;56530;42.640;23.372;2023-05-03T13:56:43;8.07;;;5.90;;
69369;SDS011;56530;42.640;23.372;2023-05-03T13:59:10;7.75;;;6.95;;
69369;SDS011;56530;42.640;23.372;2023-05-03T14:01:37;8.63;;;7.18;;
69369;SDS011;56530;42.640;23.372;2023-05-03T14:04:03;8.93;;;6.90;;
69369;SDS011;56530;42.640;23.372;2023-05-03T14:06:29;7.20;;;6.43;;
69369;SDS011;56530;42.640;23.372;2023-05-03T14:08:55;9.23;;;8.07;;
69369;SDS011;56530;42.640;23.372;2023-05-03T14:11:21;8.23;;;6.40;;
69369;SDS011;56530;42.640;23.372;2023-05-03T14:13:52;7.05;;;6.45;;
69369;SDS011;56530;42.640;23.372;2023-05-03T14:16:18;7.90;;;6.60;;
69369;SDS011;56530;42.640;23.372;2023-05-03T14:18:45;9.43;;;7.35;;
69369;SDS011;56530;42.640;23.372;2023-05-03T14:21:12;6.82;;;5.97;;
69369;SDS011;56530;42.640;23.372;2023-05-03T14:23:38;7.85;;;7.00;;
69369;SDS011;56530;42.640;23.372;2023-05-03T14:26:04;7.65;;;6.95;;
69369;SDS011;56530;42.640;23.372;2023-05-03T14:28:30;8.40;;;7.65;;
69369;SDS011;56530;42.640;23.372;2023-05-03T14:30:56;10.07;;;8.30;;
69369;SDS011;56530;42.640;23.372;2023-05-03T14:33:21;7.78;;;6.97;;
69369;SDS011;56530;42.640;23.372;2023-05-03T14:35:47;7.20;;;6.47;;
69369;SDS011;56530;42.640;23.372;2023-05-03T14:38:12;10.27;;;6.63;;
69369;SDS011;56530;42.640;23.372;2023-05-03T14:40:38;8.15;;;6.63;;
69369;SDS011;56530;42.640;23.372;2023-05-03T14:43:05;7.95;;;7.20;;
69369;SDS011;56530;42.640;23.372;2023-05-03T14:45:32;8.32;;;7.53;;
69369;SDS011;56530;42.640;23.372;2023-05-03T14:47:58;9.97;;;8.83;;
69369;SDS011;56530;42.640;23.372;2023-05-03T14:50:23;10.47;;;8.83;;
69369;SDS011;56530;42.640;23.372;2023-05-03T14:52:48;8.38;;;7.57;;
69369;SDS011;56530;42.640;23.372;2023-05-03T14:55:14;9.20;;;8.30;;
69369;SDS011;56530;42.640;23.372;2023-05-03T14:57:40;8.63;;;6.97;;
69369;SDS011;56530;42.640;23.372;2023-05-03T15:00:06;12.93;;;7.07;;
69369;SDS011;56530;42.640;23.372;2023-05-03T15:02:38;8.45;;;7.60;;
69369;SDS011;56530;42.640;23.372;2023-05-03T15:05:06;8.55;;;7.75;;
69369;SDS011;56530;42.640;23.372;2023-05-03T15:07:32;8.90;;;7.78;;
69369;SDS011;56530;42.640;23.372;2023-05-03T15:10:00;9.88;;;8.25;;
69369;SDS011;56530;42.640;23.372;2023-05-03T15:12:27;7.97;;;7.15;;
69369;SDS011;56530;42.640;23.372;2023-05-03T15:14:53;7.82;;;7.03;;
69369;SDS011;56530;42.640;23.372;2023-05-03T15:17:19;11.10;;;7.67;;
69369;SDS011;56530;42.640;23.372;2023-05-03T15:19:44;8.30;;;6.88;;
69369;SDS011;56530;42.640;23.372;2023-05-03T15:22:10;7.18;;;6.57;;
69369;SDS011;56530;42.640;23.372;2023-05-03T15:24:36;9.53;;;6.60;;
69369;SDS011;56530;42.640;23.372;2023-05-03T15:27:01;6.90;;;6.23;;
69369;SDS011;56530;42.640;23.372;2023-05-03T15:29:27;7.70;;;6.87;;
69369;SDS011;56530;42.640;23.372;2023-05-03T15:31:52;7.55;;;6.85;;
69369;SDS011;56530;42.640;23.372;2023-05-03T15:34:18;7.90;;;7.10;;
69369;SDS011;56530;42.640;23.372;2023-05-03T15:36:43;8.25;;;7.40;;
69369;SDS011;56530;42.640;23.372;2023-05-03T15:39:08;7.33;;;6.63;;
69369;SDS011;56530;42.640;23.372;2023-05-03T15:41:34;9.40;;;6.80;;
69369;SDS011;56530;42.640;23.372;2023-05-03T15:43:59;7.47;;;6.73;;
69369;SDS011;56530;42.640;23.372;2023-05-03T15:46:29;7.77;;;7.07;;
69369;SDS011;56530;42.640;23.372;2023-05-03T15:48:55;8.33;;;7.53;;
69369;SDS011;56530;42.640;23.372;2023-05-03T15:51:20;6.85;;;6.25;;
69369;SDS011;56530;42.640;23.372;2023-05-03T15:53:46;7.87;;;6.50;;
69369;SDS011;56530;42.640;23.372;2023-05-03T15:56:11;7.40;;;6.72;;
69369;SDS011;56530;42.640;23.372;2023-05-03T15:58:37;8.70;;;7.50;;
69369;SDS011;56530;42.640;23.372;2023-05-03T16:01:02;8.10;;;7.30;;
69369;SDS011;56530;42.640;23.372;2023-05-03T16:03:29;8.57;;;7.67;;
69369;SDS011;56530;42.640;23.372;2023-05-03T16:05:54;7.93;;;7.18;;
69369;SDS011;56530;42.640;23.372;2023-05-03T16:08:20;8.97;;;7.50;;
69369;SDS011;56530;42.640;23.372;2023-05-03T16:10:45;7.28;;;6.60;;
69369;SDS011;56530;42.640;23.372;2023-05-03T16:13:11;8.73;;;6.77;;
69369;SDS011;56530;42.640;23.372;2023-05-03T16:15:37;6.43;;;5.82;;
69369;SDS011;56530;42.640;23.372;2023-05-03T16:18:02;9.50;;;5.97;;
69369;SDS011;56530;42.640;23.372;2023-05-03T16:20:28;8.43;;;6.13;;